Time;durP1;ratioP1;P1;durP2;ratioP2;P2;SDS_P1;SDS_P2;PMS_P1;PMS_P2;Temp;Humidity;BMP_temperature;BMP_pressure;BME280_temperature;BME280_humidity;BME280_pressure;Samples;Min_cycle;Max_cycle;Signal;HPM_P1;HPM_P2
2022/11/28 00:01:36;;;;;;;2.40;1.35;;;19.50;60.70;;;;;;5053811;28;20045;-56
2022/11/28 00:04:03;;;;;;;2.53;1.30;;;19.50;60.70;;;;;;5052979;28;20400;-56
2022/11/28 00:06:28;;;;;;;3.45;1.52;;;19.40;60.60;;;;;;5053835;28;20037;-57
2022/11/28 00:08:54;;;;;;;4.10;1.60;;;19.40;60.60;;;;;;5053970;28;20047;-57
2022/11/28 00:11:19;;;;;;;3.20;1.33;;;19.40;60.50;;;;;;5053184;28;20052;-56
2022/11/28 00:13:45;;;;;;;3.03;1.10;;;19.40;60.60;;;;;;5053376;28;20047;-56
2022/11/28 00:16:20;;;;;;;2.92;1.35;;;19.40;60.50;;;;;;5053547;28;20087;-56
2022/11/28 00:18:46;;;;;;;3.03;1.35;;;19.40;60.50;;;;;;5052679;28;20041;-56
2022/11/28 00:21:13;;;;;;;3.33;1.15;;;19.40;60.50;;;;;;5053041;28;20094;-56
2022/11/28 00:23:39;;;;;;;3.05;1.45;;;19.40;60.50;;;;;;5052839;28;20064;-56
2022/11/28 00:26:06;;;;;;;2.05;1.00;;;19.30;60.40;;;;;;5051923;28;20072;-56
2022/11/28 00:28:32;;;;;;;3.22;1.42;;;19.30;60.40;;;;;;5053181;28;20052;-56
2022/11/28 00:30:57;;;;;;;4.28;1.52;;;19.40;60.40;;;;;;5053093;28;20041;-56
2022/11/28 00:33:23;;;;;;;2.88;1.30;;;19.40;60.40;;;;;;5052553;28;20044;-56
2022/11/28 00:35:48;;;;;;;3.72;1.40;;;19.40;60.40;;;;;;5053081;28;20120;-56
2022/11/28 00:38:14;;;;;;;3.50;1.27;;;19.30;60.30;;;;;;5052070;28;20119;-56
2022/11/28 00:40:40;;;;;;;1.75;1.10;;;19.30;60.30;;;;;;5052517;28;20056;-56
2022/11/28 00:43:05;;;;;;;3.05;1.60;;;19.30;60.30;;;;;;5052818;28;20049;-56
2022/11/28 00:45:31;;;;;;;3.58;1.17;;;19.30;60.30;;;;;;5051929;28;20060;-56
2022/11/28 00:47:56;;;;;;;3.35;1.10;;;19.30;60.30;;;;;;5051420;28;20055;-56
2022/11/28 00:50:22;;;;;;;2.38;1.30;;;19.30;60.30;;;;;;5053209;28;20051;-56
2022/11/28 00:52:48;;;;;;;2.00;1.08;;;19.30;60.30;;;;;;5052234;28;20044;-56
2022/11/28 00:55:13;;;;;;;1.73;1.10;;;19.30;60.30;;;;;;5052754;28;20044;-57
2022/11/28 00:57:39;;;;;;;3.63;1.30;;;19.30;60.20;;;;;;5052855;28;20045;-56
2022/11/28 01:00:05;;;;;;;2.78;1.13;;;19.30;60.20;;;;;;5051499;28;20469;-56
2022/11/28 01:02:31;;;;;;;2.45;1.20;;;19.30;60.20;;;;;;5052525;28;20044;-57
2022/11/28 01:04:56;;;;;;;2.20;1.17;;;19.20;60.20;;;;;;5052719;28;20045;-56
2022/11/28 01:07:22;;;;;;;2.97;1.20;;;19.20;60.10;;;;;;5051870;28;20124;-56
2022/11/28 01:09:47;;;;;;;2.72;1.20;;;19.20;60.10;;;;;;5052328;28;20124;-56
2022/11/28 01:12:13;;;;;;;2.90;1.35;;;19.20;60.20;;;;;;5052810;28;20045;-56
2022/11/28 01:14:38;;;;;;;2.08;1.30;;;19.20;60.10;;;;;;5051401;28;20040;-56
2022/11/28 01:17:04;;;;;;;2.03;1.23;;;19.20;60.10;;;;;;5052660;28;20048;-56
2022/11/28 01:19:29;;;;;;;3.38;1.20;;;19.20;60.20;;;;;;5052245;28;20120;-56
2022/11/28 01:21:55;;;;;;;1.90;1.10;;;19.20;60.10;;;;;;5051597;28;20063;-56
2022/11/28 01:24:20;;;;;;;2.20;1.20;;;19.20;60.10;;;;;;5052176;28;20485;-56
2022/11/28 01:26:46;;;;;;;2.33;1.08;;;19.20;60.10;;;;;;5051938;28;20072;-56
2022/11/28 01:29:12;;;;;;;2.35;1.20;;;19.20;60.10;;;;;;5051294;28;20085;-56
2022/11/28 01:31:37;;;;;;;1.88;1.17;;;19.20;60.10;;;;;;5051942;28;20091;-56
2022/11/28 01:34:03;;;;;;;2.53;1.20;;;19.20;60.10;;;;;;5052392;28;20041;-56
2022/11/28 01:36:28;;;;;;;2.00;1.10;;;19.10;60.60;;;;;;5051267;28;20041;-56
2022/11/28 01:38:54;;;;;;;1.85;1.05;;;19.10;60.00;;;;;;5052228;28;20041;-56
2022/11/28 01:41:22;;;;;;;2.80;1.25;;;19.10;60.00;;;;;;5051551;28;20052;-57
2022/11/28 01:44:01;;;;;;;2.40;1.00;;;19.10;60.00;;;;;;5051669;28;20064;-56
2022/11/28 01:46:27;;;;;;;2.72;0.98;;;19.10;60.00;;;;;;5051866;28;20045;-56
2022/11/28 01:48:53;;;;;;;1.90;1.10;;;19.10;60.00;;;;;;5051353;28;20052;-56
2022/11/28 01:51:19;;;;;;;3.13;1.17;;;19.10;60.00;;;;;;5050784;28;20049;-56
2022/11/28 01:53:45;;;;;;;2.00;1.00;;;19.10;60.00;;;;;;5051333;28;20080;-56
2022/11/28 01:56:22;;;;;;;3.25;1.20;;;19.10;60.00;;;;;;5051079;28;20053;-56
2022/11/28 01:58:51;;;;;;;2.33;1.20;;;19.10;60.00;;;;;;5050404;28;20390;-56
2022/11/28 02:01:16;;;;;;;2.33;1.25;;;19.10;60.00;;;;;;5050981;28;20044;-56
2022/11/28 02:03:44;;;;;;;2.15;1.05;;;19.10;60.00;;;;;;5050142;28;20086;-56
2022/11/28 02:06:10;;;;;;;1.70;1.10;;;19.10;60.00;;;;;;5051789;28;20045;-56
2022/11/28 02:08:35;;;;;;;2.55;1.10;;;19.00;59.90;;;;;;5051877;28;20040;-56
2022/11/28 02:11:23;;;;;;;1.48;1.02;;;19.10;60.00;;;;;;5053172;28;20044;-56
2022/11/28 02:13:57;;;;;;;3.28;1.30;;;19.00;59.90;;;;;;5055542;28;20041;-56
2022/11/28 02:16:30;;;;;;;3.35;1.10;;;19.00;59.90;;;;;;5055396;28;20093;-56
2022/11/28 02:19:33;;;;;;;2.03;1.10;;;19.00;60.00;;;;;;5054313;28;20052;-57
2022/11/28 02:22:11;;;;;;;2.55;1.27;;;19.00;59.90;;;;;;5055579;28;20048;-57
2022/11/28 02:24:48;;;;;;;2.78;1.35;;;19.00;59.90;;;;;;5037178;28;20044;-57
2022/11/28 02:27:23;;;;;;;1.98;0.98;;;19.00;59.90;;;;;;5054745;28;20095;-57
2022/11/28 02:30:03;;;;;;;2.65;1.20;;;19.00;59.90;;;;;;5055244;28;20049;-57
2022/11/28 02:32:35;;;;;;;2.30;0.93;;;19.00;59.90;;;;;;5054761;28;20504;-57
2022/11/28 02:35:34;;;;;;;2.25;1.30;;;19.00;59.90;;;;;;5055556;28;20056;-56
2022/11/28 02:38:09;;;;;;;2.10;1.20;;;19.00;59.80;;;;;;5053385;28;20053;-57
2022/11/28 02:40:39;;;;;;;2.85;1.10;;;19.00;59.90;;;;;;5055222;28;20477;-57
2022/11/28 02:43:42;;;;;;;1.63;0.88;;;19.00;59.80;;;;;;5054174;28;20057;-57
2022/11/28 02:46:48;;;;;;;2.10;1.10;;;19.00;59.80;;;;;;5054577;28;20107;-57
2022/11/28 02:49:21;;;;;;;2.13;1.13;;;19.10;59.90;;;;;;5054365;28;20044;-56
2022/11/28 02:51:50;;;;;;;1.95;1.10;;;19.00;59.80;;;;;;5053157;28;20519;-57
2022/11/28 02:54:16;;;;;;;1.33;0.90;;;19.00;59.80;;;;;;5053855;28;20045;-56
2022/11/28 02:56:49;;;;;;;1.80;1.25;;;19.00;59.80;;;;;;5037023;28;20160;-57
2022/11/28 02:59:24;;;;;;;2.28;1.10;;;19.10;59.80;;;;;;5054356;28;20500;-57
2022/11/28 03:01:49;;;;;;;1.85;1.00;;;19.10;59.90;;;;;;5049867;28;20045;-57
2022/11/28 03:04:28;;;;;;;2.83;1.33;;;19.10;59.90;;;;;;5034045;28;20053;-56
2022/11/28 03:07:31;;;;;;;1.65;1.10;;;19.10;59.80;;;;;;5047461;28;20041;-56
2022/11/28 03:10:34;;;;;;;2.35;1.30;;;19.10;59.80;;;;;;5034749;28;20392;-56
2022/11/28 03:13:10;;;;;;;3.35;1.20;;;19.10;59.80;;;;;;5034240;28;20551;-56
2022/11/28 03:15:48;;;;;;;2.00;1.15;;;19.10;59.80;;;;;;5050229;28;20052;-56
2022/11/28 03:18:21;;;;;;;1.88;1.17;;;19.10;59.80;;;;;;5049676;28;20096;-56
2022/11/28 03:20:55;;;;;;;2.25;1.00;;;19.10;59.80;;;;;;5049123;28;20152;-56
2022/11/28 03:23:32;;;;;;;2.08;1.25;;;19.10;59.80;;;;;;5049346;28;20095;-57
2022/11/28 03:26:06;;;;;;;2.10;1.10;;;19.10;59.70;;;;;;5050272;28;20045;-57
2022/11/28 03:28:48;;;;;;;1.58;0.93;;;19.10;59.80;;;;;;5049089;28;20171;-56
2022/11/28 03:31:16;;;;;;;2.85;1.10;;;19.10;59.70;;;;;;5048064;28;20084;-56
2022/11/28 03:33:46;;;;;;;2.50;1.30;;;19.20;59.80;;;;;;5049930;28;20052;-56
2022/11/28 03:36:15;;;;;;;1.60;0.95;;;19.10;59.70;;;;;;5033711;28;20045;-56
2022/11/28 03:38:46;;;;;;;2.65;1.00;;;19.10;59.70;;;;;;5049875;28;20041;-56
2022/11/28 03:41:29;;;;;;;2.17;1.20;;;19.20;59.80;;;;;;5049177;28;20128;-57
2022/11/28 03:43:56;;;;;;;1.52;1.02;;;19.20;59.80;;;;;;5049630;28;20068;-56
2022/11/28 03:46:22;;;;;;;2.10;1.13;;;19.20;59.80;;;;;;5049831;28;20046;-56
2022/11/28 03:48:50;;;;;;;2.80;1.25;;;19.20;59.80;;;;;;5048874;28;20053;-56
2022/11/28 03:51:29;;;;;;;1.63;0.97;;;19.20;59.80;;;;;;5049888;28;20057;-56
2022/11/28 03:54:02;;;;;;;1.70;0.90;;;19.20;59.70;;;;;;5049811;28;20042;-56
2022/11/28 03:57:11;;;;;;;2.20;1.25;;;19.20;59.70;;;;;;5032991;28;20474;-57
2022/11/28 03:59:47;;;;;;;1.60;1.10;;;19.20;59.70;;;;;;5046825;28;20068;-56
2022/11/28 04:02:28;;;;;;;1.35;0.80;;;19.20;59.70;;;;;;5048542;28;20417;-57
2022/11/28 04:05:15;;;;;;;1.55;0.93;;;19.20;59.80;;;;;;5049063;28;20060;-56
2022/11/28 04:07:51;;;;;;;2.47;1.20;;;19.20;59.70;;;;;;5033874;28;20041;-56
2022/11/28 04:10:35;;;;;;;2.92;1.02;;;19.30;59.80;;;;;;5033142;28;20049;-56
2022/11/28 04:13:06;;;;;;;1.58;1.00;;;19.20;59.60;;;;;;5047218;28;20335;-56
2022/11/28 04:15:42;;;;;;;1.70;1.02;;;19.20;59.60;;;;;;5048201;28;20061;-56
2022/11/28 04:18:24;;;;;;;2.95;1.20;;;19.30;59.70;;;;;;5048492;28;20159;-56
2022/11/28 04:21:13;;;;;;;1.55;1.00;;;19.30;59.70;;;;;;5049042;28;20051;-57
2022/11/28 04:23:39;;;;;;;1.88;0.90;;;19.30;59.70;;;;;;5045507;28;20045;-57
2022/11/28 04:26:13;;;;;;;1.92;1.10;;;19.30;59.70;;;;;;5049046;28;20048;-57
2022/11/28 04:28:39;;;;;;;1.63;1.00;;;19.30;59.60;;;;;;5033264;28;20125;-57
2022/11/28 04:31:05;;;;;;;1.42;0.95;;;19.30;59.60;;;;;;5047714;28;20124;-57
2022/11/28 04:33:32;;;;;;;2.00;0.90;;;19.30;59.60;;;;;;5047784;28;20045;-57
2022/11/28 04:35:57;;;;;;;1.92;1.10;;;19.30;59.60;;;;;;5048123;28;20478;-56
2022/11/28 04:38:23;;;;;;;2.20;1.00;;;19.30;59.60;;;;;;5047771;28;20065;-56
2022/11/28 04:41:00;;;;;;;2.47;1.10;;;19.40;59.70;;;;;;5031621;28;20037;-57
2022/11/28 04:43:28;;;;;;;1.77;1.00;;;19.30;59.60;;;;;;5048828;28;20084;-56
2022/11/28 04:45:59;;;;;;;;;;;19.30;59.60;;;;;;5048024;28;20124;-57
2022/11/28 04:48:25;;;;;;;1.52;0.93;;;19.40;59.70;;;;;;5032128;28;20059;-57
2022/11/28 04:51:19;;;;;;;2.03;1.10;;;19.40;59.60;;;;;;5032938;28;20504;-57
2022/11/28 04:54:08;;;;;;;3.05;1.27;;;19.40;59.70;;;;;;5048235;28;20045;-57
2022/11/28 04:56:38;;;;;;;1.90;1.17;;;19.40;59.70;;;;;;5051645;28;20049;-57
2022/11/28 04:59:04;;;;;;;2.38;1.10;;;19.50;59.70;;;;;;5051022;28;20503;-57
2022/11/28 05:01:30;;;;;;;2.17;1.10;;;19.50;59.70;;;;;;5044140;28;20038;-57
2022/11/28 05:03:55;;;;;;;2.08;1.00;;;19.50;59.70;;;;;;5034396;28;20052;-57
2022/11/28 05:06:26;;;;;;;2.38;1.00;;;19.50;59.60;;;;;;5049877;28;20045;-57
2022/11/28 05:08:51;;;;;;;2.42;1.00;;;19.50;59.70;;;;;;5051027;28;20554;-57
2022/11/28 05:11:17;;;;;;;1.40;0.93;;;19.50;59.60;;;;;;5052588;28;20072;-57
2022/11/28 05:13:43;;;;;;;1.88;0.88;;;19.60;59.70;;;;;;5051769;28;20048;-57
2022/11/28 05:16:09;;;;;;;1.63;0.90;;;19.60;59.70;;;;;;5052605;28;20096;-56
2022/11/28 05:18:35;;;;;;;2.25;1.13;;;19.60;59.60;;;;;;5051136;28;20049;-56
2022/11/28 05:21:01;;;;;;;2.85;1.00;;;19.60;59.60;;;;;;5052068;28;20037;-57
2022/11/28 05:23:26;;;;;;;2.67;1.10;;;19.60;59.60;;;;;;5052414;28;20041;-56
2022/11/28 05:25:52;;;;;;;1.45;0.80;;;19.60;59.60;;;;;;5052456;28;20384;-56
2022/11/28 05:28:17;;;;;;;1.40;0.95;;;19.70;59.60;;;;;;5051550;28;20060;-56
2022/11/28 05:30:43;;;;;;;1.40;0.80;;;19.70;59.60;;;;;;5051866;28;20045;-56
2022/11/28 05:33:08;;;;;;;1.90;0.98;;;19.70;59.60;;;;;;5052545;28;20036;-56
2022/11/28 05:35:34;;;;;;;2.00;1.00;;;19.70;59.60;;;;;;5051315;28;20431;-56
2022/11/28 05:37:59;;;;;;;1.58;0.90;;;19.70;59.60;;;;;;5050817;28;20426;-56
2022/11/28 05:40:25;;;;;;;1.73;1.10;;;19.70;59.60;;;;;;5052125;28;20058;-57
2022/11/28 05:42:50;;;;;;;2.35;1.10;;;19.70;59.60;;;;;;5050929;28;20041;-56
2022/11/28 05:45:16;;;;;;;1.30;1.08;;;19.70;59.60;;;;;;5052064;28;20045;-56
2022/11/28 05:47:41;;;;;;;3.30;1.17;;;19.80;59.60;;;;;;5049761;28;20043;-57
2022/11/28 05:50:07;;;;;;;1.60;1.00;;;19.80;59.60;;;;;;5052261;28;20128;-56
2022/11/28 05:52:33;;;;;;;1.95;0.90;;;19.80;59.60;;;;;;5051844;28;20131;-56
2022/11/28 05:54:59;;;;;;;1.25;0.80;;;19.80;59.60;;;;;;5051028;28;20041;-56
2022/11/28 05:57:24;;;;;;;3.15;0.90;;;19.80;59.60;;;;;;5051954;28;20052;-56
2022/11/28 05:59:50;;;;;;;1.73;0.90;;;19.80;59.60;;;;;;5051671;28;20404;-56
2022/11/28 06:02:15;;;;;;;1.85;1.00;;;19.80;59.60;;;;;;5051576;28;20051;-56
2022/11/28 06:04:41;;;;;;;2.25;1.00;;;19.80;59.60;;;;;;5051518;28;20071;-56
2022/11/28 06:07:07;;;;;;;2.10;1.00;;;19.80;59.60;;;;;;5051871;28;20124;-56
2022/11/28 06:09:33;;;;;;;1.58;1.00;;;19.80;59.60;;;;;;5050934;28;20045;-56
2022/11/28 06:11:58;;;;;;;1.98;0.90;;;19.90;59.60;;;;;;5051697;28;20049;-56
2022/11/28 06:14:24;;;;;;;2.08;1.10;;;19.90;59.60;;;;;;5051664;28;20072;-56
2022/11/28 06:16:49;;;;;;;1.83;1.10;;;19.90;59.60;;;;;;5050658;28;20045;-56
2022/11/28 06:19:15;;;;;;;2.28;0.98;;;19.90;59.50;;;;;;5051622;28;20547;-56
2022/11/28 06:21:40;;;;;;;1.35;0.88;;;19.90;59.60;;;;;;5051292;28;20492;-56
2022/11/28 06:24:06;;;;;;;2.20;0.98;;;19.90;59.50;;;;;;5050863;28;20049;-57
2022/11/28 06:26:32;;;;;;;1.65;1.10;;;19.90;59.60;;;;;;5050743;28;20042;-57
2022/11/28 06:28:57;;;;;;;1.85;0.85;;;19.90;59.60;;;;;;5051555;28;20049;-57
2022/11/28 06:31:26;;;;;;;2.45;1.25;;;19.90;59.60;;;;;;5051127;28;20041;-57
2022/11/28 06:33:52;;;;;;;1.00;0.80;;;19.90;59.50;;;;;;5050760;28;20136;-57
2022/11/28 06:36:18;;;;;;;2.05;0.88;;;19.90;59.60;;;;;;5051748;28;20451;-57
2022/11/28 06:38:43;;;;;;;1.75;1.05;;;19.90;59.50;;;;;;5050816;28;20106;-57
2022/11/28 06:41:11;;;;;;;1.20;0.80;;;20.00;59.60;;;;;;5051854;28;20041;-57
2022/11/28 06:43:37;;;;;;;1.77;0.95;;;19.90;59.50;;;;;;5051213;28;20048;-56
2022/11/28 06:46:02;;;;;;;2.17;1.00;;;20.00;59.60;;;;;;5050939;28;20362;-57
2022/11/28 06:48:28;;;;;;;2.38;1.10;;;20.00;59.60;;;;;;5051222;28;20128;-57
2022/11/28 06:50:54;;;;;;;1.60;0.90;;;20.00;59.60;;;;;;5050883;28;20045;-57
2022/11/28 06:53:19;;;;;;;1.67;0.95;;;20.00;59.60;;;;;;5050500;28;20048;-57
2022/11/28 06:55:45;;;;;;;1.55;0.98;;;20.00;59.60;;;;;;5051523;28;20048;-57
2022/11/28 06:58:11;;;;;;;1.73;0.90;;;20.00;59.60;;;;;;5052957;28;20733;-57
2022/11/28 07:00:36;;;;;;;1.45;0.80;;;20.00;59.60;;;;;;5055015;28;20135;-57
2022/11/28 07:03:02;;;;;;;1.88;0.90;;;20.00;59.60;;;;;;5055234;28;20056;-57
2022/11/28 07:05:29;;;;;;;1.38;0.90;;;20.00;59.60;;;;;;5054133;28;20040;-57
2022/11/28 07:07:55;;;;;;;1.73;0.98;;;20.00;59.60;;;;;;5054767;28;20443;-56
2022/11/28 07:10:21;;;;;;;1.92;0.98;;;20.00;59.60;;;;;;5054836;28;20056;-57
2022/11/28 07:12:51;;;;;;;1.85;1.08;;;20.00;59.60;;;;;;5054199;28;20041;-58
2022/11/28 07:15:17;;;;;;;1.63;0.80;;;20.00;59.60;;;;;;5054647;28;20044;-57
2022/11/28 07:17:42;;;;;;;1.67;1.00;;;20.10;59.70;;;;;;5054769;28;20052;-57
2022/11/28 07:20:08;;;;;;;3.50;0.93;;;20.00;59.60;;;;;;5054271;28;20071;-57
2022/11/28 07:22:34;;;;;;;5.25;1.20;;;20.10;59.60;;;;;;5054788;28;20053;-57
2022/11/28 07:24:59;;;;;;;2.22;1.00;;;20.00;59.60;;;;;;5054671;28;20044;-57
2022/11/28 07:27:25;;;;;;;2.05;1.10;;;20.10;59.60;;;;;;5054240;28;20102;-57
2022/11/28 07:29:50;;;;;;;2.95;1.10;;;20.10;59.60;;;;;;5054323;28;20443;-56
2022/11/28 07:32:16;;;;;;;3.78;1.10;;;20.00;59.60;;;;;;5054421;28;20045;-57
2022/11/28 07:34:41;;;;;;;3.70;1.10;;;20.00;59.60;;;;;;5052610;28;20060;-57
2022/11/28 07:37:07;;;;;;;2.63;1.10;;;20.10;59.70;;;;;;5054582;28;20083;-58
2022/11/28 07:39:33;;;;;;;2.65;1.00;;;20.10;59.70;;;;;;5051473;28;20537;-57
2022/11/28 07:41:58;;;;;;;3.90;1.10;;;20.10;59.80;;;;;;5053048;28;20072;-57
2022/11/28 07:44:24;;;;;;;4.40;1.10;;;20.10;60.50;;;;;;5053515;28;20457;-56
2022/11/28 07:46:49;;;;;;;3.15;1.30;;;20.10;60.10;;;;;;5053718;28;20416;-57
2022/11/28 07:49:15;;;;;;;3.33;1.00;;;20.10;60.20;;;;;;5053231;28;20484;-56
2022/11/28 07:51:41;;;;;;;2.45;0.95;;;20.10;60.30;;;;;;5054024;28;20040;-57
2022/11/28 07:54:06;;;;;;;5.70;1.15;;;20.20;60.50;;;;;;5053607;28;20400;-56
2022/11/28 07:56:34;;;;;;;2.55;0.90;;;20.20;60.60;;;;;;5053936;28;20481;-57
2022/11/28 07:58:59;;;;;;;3.00;0.80;;;20.20;60.70;;;;;;5054322;28;20044;-56
2022/11/28 08:01:27;;;;;;;4.07;1.13;;;20.20;60.70;;;;;;5053233;28;20360;-57
2022/11/28 08:03:52;;;;;;;2.63;0.90;;;20.20;60.80;;;;;;5053825;28;20183;-57
2022/11/28 08:06:20;;;;;;;1.92;0.80;;;20.20;60.90;;;;;;5053969;28;20119;-56
2022/11/28 08:08:46;;;;;;;2.67;1.10;;;20.20;61.00;;;;;;5052588;28;20045;-57
2022/11/28 08:11:11;;;;;;;3.38;1.13;;;20.20;61.10;;;;;;5053894;28;20041;-57
2022/11/28 08:13:37;;;;;;;1.95;0.90;;;20.30;61.10;;;;;;5053400;28;20168;-56
2022/11/28 08:16:05;;;;;;;4.10;1.30;;;20.20;61.10;;;;;;5052671;28;20045;-57
2022/11/28 08:18:30;;;;;;;1.75;1.00;;;20.30;61.20;;;;;;5051596;28;20053;-57
2022/11/28 08:21:28;;;;;;;4.00;1.10;;;20.30;61.20;;;;;;5053148;28;20400;-57
2022/11/28 08:23:54;;;;;;;4.70;1.10;;;20.30;61.30;;;;;;5051569;28;20053;-57
2022/11/28 08:26:21;;;;;;;3.63;1.00;;;20.30;61.30;;;;;;5053214;28;20048;-57
2022/11/28 08:28:47;;;;;;;2.13;1.13;;;20.30;61.40;;;;;;5053211;28;20059;-57
2022/11/28 08:31:17;;;;;;;3.60;1.10;;;20.30;61.30;;;;;;5052524;28;20124;-56
2022/11/28 08:33:43;;;;;;;2.17;0.95;;;20.30;61.40;;;;;;5053267;28;20052;-57
2022/11/28 08:36:10;;;;;;;3.83;1.10;;;20.30;61.40;;;;;;5053518;28;20041;-57
2022/11/28 08:38:36;;;;;;;3.00;1.40;;;20.30;61.40;;;;;;5052417;28;20488;-57
2022/11/28 08:41:06;;;;;;;2.03;1.15;;;20.30;61.20;;;;;;5053485;28;20095;-57
2022/11/28 08:43:35;;;;;;;4.07;1.00;;;20.30;61.20;;;;;;5051974;28;20401;-57
2022/11/28 08:46:04;;;;;;;2.40;1.25;;;20.30;61.30;;;;;;5052726;28;20106;-57
2022/11/28 08:48:30;;;;;;;3.17;1.20;;;20.30;61.40;;;;;;5052723;28;20049;-57
2022/11/28 08:50:56;;;;;;;3.30;1.17;;;20.30;61.50;;;;;;5052343;28;20051;-57
2022/11/28 08:53:21;;;;;;;3.90;1.27;;;20.40;61.50;;;;;;5053236;28;20037;-57
2022/11/28 08:55:47;;;;;;;3.22;0.95;;;20.30;61.50;;;;;;5052691;28;20520;-57
2022/11/28 08:58:13;;;;;;;7.15;1.20;;;20.30;61.50;;;;;;5052447;28;20041;-57
2022/11/28 09:00:39;;;;;;;3.38;0.90;;;20.40;61.50;;;;;;5052646;28;20128;-58
2022/11/28 09:03:05;;;;;;;3.03;1.20;;;20.40;61.60;;;;;;5052972;28;20047;-57
2022/11/28 09:05:31;;;;;;;4.13;1.00;;;20.40;61.60;;;;;;5051775;28;20044;-58
2022/11/28 09:07:56;;;;;;;2.03;1.10;;;20.40;61.70;;;;;;5052915;28;20048;-57
2022/11/28 09:10:22;;;;;;;3.05;1.27;;;20.40;61.70;;;;;;5052890;28;20041;-57
2022/11/28 09:12:48;;;;;;;3.10;1.00;;;20.40;61.70;;;;;;5051686;28;20052;-57
2022/11/28 09:15:13;;;;;;;2.30;0.90;;;20.40;61.70;;;;;;5052565;28;20110;-57
2022/11/28 09:17:39;;;;;;;3.22;0.93;;;20.40;61.60;;;;;;5052610;28;20090;-58
2022/11/28 09:20:05;;;;;;;3.42;1.33;;;20.40;61.70;;;;;;5051670;28;20400;-57
2022/11/28 09:22:31;;;;;;;2.10;1.20;;;20.40;61.60;;;;;;5052384;28;20115;-57
2022/11/28 09:24:56;;;;;;;2.75;1.27;;;20.40;61.70;;;;;;5052861;28;20148;-57
2022/11/28 09:27:22;;;;;;;3.10;1.20;;;20.40;61.70;;;;;;5052245;28;20044;-57
2022/11/28 09:29:47;;;;;;;2.95;1.27;;;20.40;61.70;;;;;;5052046;28;20507;-57
2022/11/28 09:32:13;;;;;;;3.08;1.40;;;20.30;61.60;;;;;;5052581;28;20043;-57
2022/11/28 09:34:39;;;;;;;5.53;1.00;;;20.30;61.60;;;;;;5051789;28;20089;-57
2022/11/28 09:37:04;;;;;;;2.72;1.00;;;20.30;61.70;;;;;;5052448;28;20041;-57
2022/11/28 09:39:30;;;;;;;1.80;1.00;;;20.40;61.80;;;;;;5052389;28;20124;-57
2022/11/28 09:41:57;;;;;;;4.88;1.10;;;20.30;61.80;;;;;;5051878;28;20171;-57
2022/11/28 09:44:33;;;;;;;3.17;1.20;;;20.30;61.70;;;;;;5051032;28;20411;-57
2022/11/28 09:47:00;;;;;;;1.65;0.95;;;20.30;61.80;;;;;;5050814;28;20041;-58
2022/11/28 09:49:41;;;;;;;4.18;1.33;;;20.30;61.70;;;;;;5051284;28;20057;-58
2022/11/28 09:52:33;;;;;;;2.40;1.20;;;20.30;61.60;;;;;;5051223;28;20068;-58
2022/11/28 09:55:36;;;;;;;3.13;1.33;;;20.30;61.50;;;;;;5032196;28;20477;-58
2022/11/28 09:58:08;;;;;;;3.78;1.10;;;20.30;61.60;;;;;;5052324;28;20435;-58
2022/11/28 10:00:37;;;;;;;3.55;1.00;;;20.30;61.50;;;;;;5042920;28;20080;-58
2022/11/28 10:03:16;;;;;;;4.13;1.38;;;20.20;61.50;;;;;;5046477;28;20053;-58
2022/11/28 10:05:57;;;;;;;2.85;1.13;;;20.30;61.50;;;;;;5046467;28;20084;-58
2022/11/28 10:09:00;;;;;;;4.95;1.10;;;20.30;61.50;;;;;;5030939;28;20049;-59
2022/11/28 10:11:41;;;;;;;3.03;1.10;;;20.30;61.50;;;;;;5039584;28;20059;-58
2022/11/28 10:14:25;;;;;;;3.97;1.00;;;20.20;61.40;;;;;;5045990;28;20132;-59
2022/11/28 10:17:09;;;;;;;4.10;1.00;;;20.20;61.40;;;;;;5030384;28;20041;-58
2022/11/28 10:19:40;;;;;;;6.07;1.67;;;20.20;61.30;;;;;;5047279;28;20049;-59
2022/11/28 10:22:10;;;;;;;3.45;1.25;;;20.20;61.40;;;;;;5048432;28;20041;-57
2022/11/28 10:24:41;;;;;;;4.10;1.20;;;20.20;61.40;;;;;;5050705;28;20114;-58
2022/11/28 10:27:08;;;;;;;3.75;1.00;;;20.20;61.40;;;;;;5050856;28;20045;-57
2022/11/28 10:29:44;;;;;;;3.35;1.40;;;20.20;61.40;;;;;;5049829;28;20049;-58
2022/11/28 10:32:15;;;;;;;3.83;1.20;;;20.20;61.50;;;;;;5051307;28;20041;-58
2022/11/28 10:35:00;;;;;;;5.10;1.30;;;20.20;61.50;;;;;;5054625;28;20128;-58
2022/11/28 10:37:30;;;;;;;6.63;1.08;;;20.20;61.50;;;;;;5039746;28;20045;-58
2022/11/28 10:40:04;;;;;;;5.63;1.08;;;20.10;61.50;;;;;;5055784;28;20053;-57
2022/11/28 10:42:33;;;;;;;3.85;1.40;;;20.10;61.50;;;;;;5054179;28;20102;-58
2022/11/28 10:45:19;;;;;;;5.10;1.20;;;20.10;61.60;;;;;;5054846;28;20060;-58
2022/11/28 10:48:00;;;;;;;5.20;1.27;;;20.20;61.40;;;;;;5051286;28;20385;-58
2022/11/28 10:50:49;;;;;;;3.67;1.30;;;20.10;61.50;;;;;;5055001;28;20128;-58
2022/11/28 10:53:52;;;;;;;4.68;1.20;;;20.10;61.30;;;;;;5054476;28;20041;-58
2022/11/28 10:56:26;;;;;;;4.57;1.23;;;20.10;61.30;;;;;;5054377;28;20095;-58
2022/11/28 10:59:04;;;;;;;3.22;1.27;;;20.10;61.30;;;;;;5054875;28;20044;-57
2022/11/28 11:01:33;;;;;;;3.83;1.40;;;20.00;61.10;;;;;;5054007;28;20119;-57
2022/11/28 11:03:59;;;;;;;4.30;1.50;;;20.10;61.20;;;;;;5054438;28;20045;-59
2022/11/28 11:06:25;;;;;;;2.60;1.30;;;20.00;61.40;;;;;;5042480;28;20048;-60
2022/11/28 11:08:51;;;;;;;7.15;1.60;;;20.00;61.40;;;;;;5041008;28;20042;-60
2022/11/28 11:11:27;;;;;;;6.40;1.70;;;20.00;61.50;;;;;;5042130;28;20041;-61
2022/11/28 11:14:11;;;;;;;3.67;1.52;;;20.00;61.60;;;;;;5036823;28;20045;-61
2022/11/28 11:16:54;;;;;;;5.90;1.60;;;20.10;61.80;;;;;;5042561;28;20120;-61
2022/11/28 11:19:24;;;;;;;4.40;1.33;;;20.10;62.00;;;;;;5042701;28;20123;-62
2022/11/28 11:22:04;;;;;;;2.35;1.27;;;20.10;62.10;;;;;;5046503;28;20068;-61
2022/11/28 11:24:30;;;;;;;4.15;1.38;;;20.00;62.20;;;;;;5053712;28;20052;-62
2022/11/28 11:27:06;;;;;;;4.50;1.25;;;20.10;62.30;;;;;;5053469;28;20044;-62
2022/11/28 11:29:34;;;;;;;6.93;1.80;;;20.10;62.40;;;;;;5046616;28;20042;-60
2022/11/28 11:32:02;;;;;;;7.18;1.58;;;20.10;62.50;;;;;;5050110;28;20045;-60
2022/11/28 11:34:27;;;;;;;5.60;1.23;;;20.00;62.40;;;;;;5051595;28;20080;-61
2022/11/28 11:36:53;;;;;;;5.65;1.63;;;20.10;62.40;;;;;;5055807;28;20562;-60
2022/11/28 11:39:21;;;;;;;3.28;1.60;;;20.00;62.40;;;;;;5041208;28;20049;-60
2022/11/28 11:41:50;;;;;;;6.40;1.30;;;20.10;62.30;;;;;;5052147;28;20406;-60
2022/11/28 11:44:25;;;;;;;2.78;1.30;;;20.10;62.30;;;;;;5053246;28;20053;-61
2022/11/28 11:46:53;;;;;;;4.38;1.65;;;20.10;62.50;;;;;;5068554;28;20044;-61
2022/11/28 11:49:36;;;;;;;4.47;1.40;;;20.10;62.50;;;;;;5054406;28;20044;-60
2022/11/28 11:52:11;;;;;;;3.78;1.50;;;20.10;62.50;;;;;;5054324;28;20045;-60
2022/11/28 11:54:38;;;;;;;3.40;1.30;;;20.10;62.50;;;;;;5053080;28;20041;-62
2022/11/28 11:57:04;;;;;;;3.85;1.40;;;20.10;62.60;;;;;;5051725;28;20037;-60
2022/11/28 11:59:30;;;;;;;3.70;1.55;;;20.00;62.70;;;;;;5035246;28;20372;-60
2022/11/28 12:02:07;;;;;;;5.30;1.60;;;20.00;62.80;;;;;;5051154;28;20143;-61
2022/11/28 12:04:36;;;;;;;4.60;1.52;;;20.00;62.90;;;;;;5067414;28;20089;-62
2022/11/28 12:07:04;;;;;;;4.85;1.60;;;20.00;62.90;;;;;;5052429;28;20051;-61
2022/11/28 12:09:38;;;;;;;4.18;1.27;;;20.00;63.00;;;;;;5051316;28;20043;-62
2022/11/28 12:12:15;;;;;;;3.65;1.80;;;20.00;63.00;;;;;;5049415;28;20044;-62
2022/11/28 12:14:40;;;;;;;2.75;1.52;;;20.00;63.10;;;;;;5051615;28;20813;-61
2022/11/28 12:17:30;;;;;;;3.75;1.60;;;20.00;63.10;;;;;;5051566;28;20037;-61
2022/11/28 12:20:00;;;;;;;2.80;1.50;;;20.00;63.20;;;;;;5053204;28;20486;-62
2022/11/28 12:22:41;;;;;;;5.90;1.80;;;20.00;63.20;;;;;;5048620;28;20084;-62
2022/11/28 12:25:25;;;;;;;4.90;1.63;;;20.00;63.20;;;;;;5049894;28;20052;-62
2022/11/28 12:28:01;;;;;;;4.82;1.40;;;20.00;63.30;;;;;;5051183;28;20098;-61
2022/11/28 12:30:29;;;;;;;3.15;1.70;;;20.00;63.30;;;;;;5048612;28;20051;-62
2022/11/28 12:33:07;;;;;;;2.58;1.20;;;20.00;63.40;;;;;;5053051;28;20068;-62
2022/11/28 12:35:33;;;;;;;;;;;20.00;63.40;;;;;;5033087;28;20112;-62
2022/11/28 12:38:21;;;;;;;3.85;1.40;;;20.00;63.20;;;;;;5052586;28;20036;-61
2022/11/28 12:41:05;;;;;;;2.63;1.40;;;20.00;63.30;;;;;;5065678;28;20048;-61
2022/11/28 12:44:00;;;;;;;3.47;1.42;;;20.00;63.40;;;;;;5049741;28;20061;-61
2022/11/28 12:46:44;;;;;;;3.92;1.45;;;20.00;63.50;;;;;;5048860;28;20507;-62
2022/11/28 12:49:24;;;;;;;3.08;1.40;;;20.00;63.60;;;;;;5044587;28;20041;-61
2022/11/28 12:52:00;;;;;;;2.70;1.27;;;20.00;63.50;;;;;;5054842;28;20053;-62
2022/11/28 12:54:54;;;;;;;2.90;1.23;;;20.10;63.50;;;;;;5035822;28;20057;-59
2022/11/28 12:57:34;;;;;;;4.55;1.70;;;20.00;63.30;;;;;;5038076;28;20049;-60
2022/11/28 13:00:21;;;;;;;5.25;1.52;;;20.10;63.30;;;;;;5042379;28;20187;-60
2022/11/28 13:03:10;;;;;;;5.95;1.60;;;20.10;63.00;;;;;;5057440;28;20507;-61
2022/11/28 13:06:21;;;;;;;3.35;1.30;;;20.10;63.00;;;;;;5055034;28;20041;-60
2022/11/28 13:08:58;;;;;;;4.03;1.60;;;20.10;63.00;;;;;;5035115;28;20057;-61